sensor_id;sensor_type;location;lat;lon;timestamp;pressure;altitude;pressure_sealevel;temperature;humidity
64698;BME280;51124;53.394;-6.294;2023-01-16T00:00:46;98431.02;;;18.71;11.69
64698;BME280;51124;53.394;-6.294;2023-01-16T00:03:20;98432.25;;;18.67;11.56
64698;BME280;51124;53.394;-6.294;2023-01-16T00:05:55;98434.86;;;18.36;11.64
64698;BME280;51124;53.394;-6.294;2023-01-16T00:08:29;98435.73;;;18.70;11.55
64698;BME280;51124;53.394;-6.294;2023-01-16T00:11:02;98433.95;;;17.59;11.62
64698;BME280;51124;53.394;-6.294;2023-01-16T00:13:37;98436.23;;;18.40;11.64
64698;BME280;51124;53.394;-6.294;2023-01-16T00:16:11;98436.11;;;18.20;11.60
64698;BME280;51124;53.394;-6.294;2023-01-16T00:18:45;98435.24;;;18.16;11.54
64698;BME280;51124;53.394;-6.294;2023-01-16T00:21:19;98439.98;;;18.66;11.51
64698;BME280;51124;53.394;-6.294;2023-01-16T00:23:53;98441.20;;;18.31;11.51
64698;BME280;51124;53.394;-6.294;2023-01-16T00:26:28;98437.35;;;17.68;11.70
64698;BME280;51124;53.394;-6.294;2023-01-16T00:29:02;98441.30;;;17.90;11.60
64698;BME280;51124;53.394;-6.294;2023-01-16T00:31:36;98435.84;;;18.47;11.54
64698;BME280;51124;53.394;-6.294;2023-01-16T00:34:10;98440.47;;;18.26;11.53
64698;BME280;51124;53.394;-6.294;2023-01-16T00:36:44;98440.13;;;17.86;11.55
64698;BME280;51124;53.394;-6.294;2023-01-16T00:39:18;98441.85;;;18.07;11.53
64698;BME280;51124;53.394;-6.294;2023-01-16T00:41:52;98442.30;;;18.05;11.56
64698;BME280;51124;53.394;-6.294;2023-01-16T00:44:26;98442.78;;;18.19;11.59
64698;BME280;51124;53.394;-6.294;2023-01-16T00:47:00;98443.89;;;18.02;11.52
64698;BME280;51124;53.394;-6.294;2023-01-16T00:49:33;98439.38;;;18.04;11.54
64698;BME280;51124;53.394;-6.294;2023-01-16T00:52:07;98435.64;;;18.07;11.53
64698;BME280;51124;53.394;-6.294;2023-01-16T00:54:41;98436.58;;;17.61;11.63
64698;BME280;51124;53.394;-6.294;2023-01-16T00:57:15;98439.91;;;17.75;11.61
64698;BME280;51124;53.394;-6.294;2023-01-16T00:59:49;98441.73;;;17.90;11.51
64698;BME280;51124;53.394;-6.294;2023-01-16T01:02:23;98442.22;;;17.44;11.69
64698;BME280;51124;53.394;-6.294;2023-01-16T01:04:57;98441.25;;;17.63;11.60
64698;BME280;51124;53.394;-6.294;2023-01-16T01:07:33;98439.62;;;17.88;11.63
64698;BME280;51124;53.394;-6.294;2023-01-16T01:09:59;98440.82;;;17.63;11.64
64698;BME280;51124;53.394;-6.294;2023-01-16T01:12:25;98437.25;;;17.84;11.60
64698;BME280;51124;53.394;-6.294;2023-01-16T01:14:51;98439.04;;;17.23;11.72
64698;BME280;51124;53.394;-6.294;2023-01-16T01:17:16;98439.82;;;17.27;11.74
64698;BME280;51124;53.394;-6.294;2023-01-16T01:19:42;98439.08;;;17.92;11.69
64698;BME280;51124;53.394;-6.294;2023-01-16T01:22:08;98438.33;;;17.48;11.70
64698;BME280;51124;53.394;-6.294;2023-01-16T01:24:34;98439.32;;;17.87;11.68
64698;BME280;51124;53.394;-6.294;2023-01-16T01:26:59;98433.93;;;18.17;11.54
64698;BME280;51124;53.394;-6.294;2023-01-16T01:29:25;98437.89;;;17.28;11.71
64698;BME280;51124;53.394;-6.294;2023-01-16T01:31:51;98435.81;;;17.57;11.72
64698;BME280;51124;53.394;-6.294;2023-01-16T01:34:16;98432.48;;;18.14;11.66
64698;BME280;51124;53.394;-6.294;2023-01-16T01:36:42;98443.17;;;17.23;11.69
64698;BME280;51124;53.394;-6.294;2023-01-16T01:39:08;98452.52;;;17.40;11.68
64698;BME280;51124;53.394;-6.294;2023-01-16T01:41:34;98451.10;;;17.38;11.67
64698;BME280;51124;53.394;-6.294;2023-01-16T01:44:00;98446.92;;;17.31;11.69
64698;BME280;51124;53.394;-6.294;2023-01-16T01:46:28;98442.53;;;17.66;11.69
64698;BME280;51124;53.394;-6.294;2023-01-16T01:49:00;98449.30;;;17.16;11.68
64698;BME280;51124;53.394;-6.294;2023-01-16T01:51:31;98450.93;;;17.58;11.65
64698;BME280;51124;53.394;-6.294;2023-01-16T01:54:01;98451.69;;;17.28;11.71
64698;BME280;51124;53.394;-6.294;2023-01-16T01:56:32;98447.61;;;17.53;11.73
64698;BME280;51124;53.394;-6.294;2023-01-16T01:59:05;98453.76;;;17.59;11.71
64698;BME280;51124;53.394;-6.294;2023-01-16T02:01:32;98451.21;;;17.10;11.69
64698;BME280;51124;53.394;-6.294;2023-01-16T02:04:00;98447.37;;;17.60;11.67
64698;BME280;51124;53.394;-6.294;2023-01-16T02:06:33;98441.71;;;16.99;11.74
64698;BME280;51124;53.394;-6.294;2023-01-16T02:09:00;98453.36;;;17.11;11.65
64698;BME280;51124;53.394;-6.294;2023-01-16T02:11:31;98456.83;;;16.87;11.76
64698;BME280;51124;53.394;-6.294;2023-01-16T02:14:02;98462.21;;;17.05;11.74
64698;BME280;51124;53.394;-6.294;2023-01-16T02:16:30;98455.34;;;16.85;11.77
64698;BME280;51124;53.394;-6.294;2023-01-16T02:18:55;98453.85;;;17.18;11.68
64698;BME280;51124;53.394;-6.294;2023-01-16T02:21:35;98453.75;;;17.14;11.77
64698;BME280;51124;53.394;-6.294;2023-01-16T02:27:23;98453.53;;;17.23;11.64
64698;BME280;51124;53.394;-6.294;2023-01-16T02:29:16;98452.46;;;17.56;11.71
64698;BME280;51124;53.394;-6.294;2023-01-16T02:31:41;98454.92;;;16.88;11.81
64698;BME280;51124;53.394;-6.294;2023-01-16T02:34:24;98458.98;;;17.30;11.79
64698;BME280;51124;53.394;-6.294;2023-01-16T02:36:52;98466.30;;;16.82;11.76
64698;BME280;51124;53.394;-6.294;2023-01-16T02:39:16;98465.45;;;17.44;11.72
64698;BME280;51124;53.394;-6.294;2023-01-16T02:41:41;98465.85;;;17.08;11.72
64698;BME280;51124;53.394;-6.294;2023-01-16T02:44:32;98469.16;;;17.07;11.76
64698;BME280;51124;53.394;-6.294;2023-01-16T02:46:47;98471.36;;;17.26;11.73
64698;BME280;51124;53.394;-6.294;2023-01-16T02:49:20;98470.18;;;17.05;11.75
64698;BME280;51124;53.394;-6.294;2023-01-16T02:51:55;98469.97;;;17.09;11.72
64698;BME280;51124;53.394;-6.294;2023-01-16T02:54:26;98470.32;;;16.93;11.71
64698;BME280;51124;53.394;-6.294;2023-01-16T02:56:56;98473.32;;;16.94;11.74
64698;BME280;51124;53.394;-6.294;2023-01-16T02:59:23;98473.53;;;16.62;11.79
64698;BME280;51124;53.394;-6.294;2023-01-16T03:01:50;98472.17;;;17.17;11.72
64698;BME280;51124;53.394;-6.294;2023-01-16T03:04:50;98468.84;;;16.93;11.71
64698;BME280;51124;53.394;-6.294;2023-01-16T03:06:49;98472.83;;;16.82;11.76
64698;BME280;51124;53.394;-6.294;2023-01-16T03:09:28;98476.86;;;16.73;11.72
64698;BME280;51124;53.394;-6.294;2023-01-16T03:11:52;98482.48;;;17.24;11.71
64698;BME280;51124;53.394;-6.294;2023-01-16T03:14:20;98484.59;;;17.02;11.78
64698;BME280;51124;53.394;-6.294;2023-01-16T03:16:45;98482.01;;;17.03;11.74
64698;BME280;51124;53.394;-6.294;2023-01-16T03:19:20;98474.84;;;17.49;11.70
64698;BME280;51124;53.394;-6.294;2023-01-16T03:21:50;98472.35;;;16.36;11.75
64698;BME280;51124;53.394;-6.294;2023-01-16T03:24:18;98467.99;;;17.14;11.70
64698;BME280;51124;53.394;-6.294;2023-01-16T03:26:40;98473.34;;;16.85;11.69
64698;BME280;51124;53.394;-6.294;2023-01-16T03:29:11;98478.72;;;16.72;11.73
64698;BME280;51124;53.394;-6.294;2023-01-16T03:31:38;98475.93;;;16.50;11.78
64698;BME280;51124;53.394;-6.294;2023-01-16T03:34:13;98480.81;;;17.15;11.76
64698;BME280;51124;53.394;-6.294;2023-01-16T03:36:36;98477.51;;;16.98;11.70
64698;BME280;51124;53.394;-6.294;2023-01-16T03:39:06;98480.11;;;16.64;11.78
64698;BME280;51124;53.394;-6.294;2023-01-16T03:41:34;98485.60;;;16.27;11.77
64698;BME280;51124;53.394;-6.294;2023-01-16T03:44:03;98487.13;;;16.37;11.76
64698;BME280;51124;53.394;-6.294;2023-01-16T03:46:32;98490.41;;;17.12;11.81
64698;BME280;51124;53.394;-6.294;2023-01-16T03:49:05;98495.48;;;16.63;11.77
64698;BME280;51124;53.394;-6.294;2023-01-16T03:51:36;98499.41;;;16.53;11.77
64698;BME280;51124;53.394;-6.294;2023-01-16T03:54:09;98508.70;;;16.52;11.79
64698;BME280;51124;53.394;-6.294;2023-01-16T03:56:40;98508.68;;;17.01;11.74
64698;BME280;51124;53.394;-6.294;2023-01-16T03:59:09;98511.77;;;16.72;11.78
64698;BME280;51124;53.394;-6.294;2023-01-16T04:01:39;98513.46;;;16.96;11.78
64698;BME280;51124;53.394;-6.294;2023-01-16T04:04:13;98513.52;;;16.53;11.81
64698;BME280;51124;53.394;-6.294;2023-01-16T04:06:45;98517.63;;;17.07;11.82
64698;BME280;51124;53.394;-6.294;2023-01-16T04:09:18;98522.24;;;16.79;11.80
64698;BME280;51124;53.394;-6.294;2023-01-16T04:11:49;98522.63;;;17.32;11.75
64698;BME280;51124;53.394;-6.294;2023-01-16T04:14:16;98523.93;;;16.58;11.73
64698;BME280;51124;53.394;-6.294;2023-01-16T04:16:43;98525.00;;;17.13;11.75
64698;BME280;51124;53.394;-6.294;2023-01-16T04:19:12;98531.81;;;16.44;11.81
64698;BME280;51124;53.394;-6.294;2023-01-16T04:21:43;98530.76;;;16.85;11.70
64698;BME280;51124;53.394;-6.294;2023-01-16T04:24:09;98532.18;;;16.52;11.75
64698;BME280;51124;53.394;-6.294;2023-01-16T04:26:36;98534.55;;;17.00;11.75
64698;BME280;51124;53.394;-6.294;2023-01-16T04:29:01;98534.43;;;16.87;11.80
64698;BME280;51124;53.394;-6.294;2023-01-16T04:31:27;98529.92;;;16.59;11.78
64698;BME280;51124;53.394;-6.294;2023-01-16T04:33:53;98530.10;;;16.84;11.77
64698;BME280;51124;53.394;-6.294;2023-01-16T04:36:19;98526.52;;;16.61;11.79
64698;BME280;51124;53.394;-6.294;2023-01-16T04:38:44;98525.45;;;16.56;11.81
64698;BME280;51124;53.394;-6.294;2023-01-16T04:41:10;98533.42;;;16.56;11.85
64698;BME280;51124;53.394;-6.294;2023-01-16T04:43:36;98540.64;;;16.93;11.78
64698;BME280;51124;53.394;-6.294;2023-01-16T04:46:01;98544.67;;;16.52;11.82
64698;BME280;51124;53.394;-6.294;2023-01-16T04:48:27;98547.37;;;16.37;11.79
64698;BME280;51124;53.394;-6.294;2023-01-16T04:50:53;98546.89;;;17.22;11.72
64698;BME280;51124;53.394;-6.294;2023-01-16T04:53:19;98549.93;;;16.52;11.83
64698;BME280;51124;53.394;-6.294;2023-01-16T04:55:45;98550.09;;;16.07;11.82
64698;BME280;51124;53.394;-6.294;2023-01-16T04:58:10;98549.10;;;16.41;11.82
64698;BME280;51124;53.394;-6.294;2023-01-16T05:00:36;98549.68;;;16.62;11.82
64698;BME280;51124;53.394;-6.294;2023-01-16T05:03:02;98549.81;;;16.86;11.72
64698;BME280;51124;53.394;-6.294;2023-01-16T05:05:28;98548.55;;;16.15;11.86
64698;BME280;51124;53.394;-6.294;2023-01-16T05:07:53;98552.83;;;16.45;11.83
64698;BME280;51124;53.394;-6.294;2023-01-16T05:10:19;98554.19;;;16.55;11.82
64698;BME280;51124;53.394;-6.294;2023-01-16T05:12:45;98551.86;;;16.41;11.81
64698;BME280;51124;53.394;-6.294;2023-01-16T05:15:11;98553.17;;;16.44;11.78
64698;BME280;51124;53.394;-6.294;2023-01-16T05:17:37;98556.60;;;16.24;11.83
64698;BME280;51124;53.394;-6.294;2023-01-16T05:20:03;98560.26;;;16.79;11.91
64698;BME280;51124;53.394;-6.294;2023-01-16T05:22:29;98562.03;;;16.56;11.79
64698;BME280;51124;53.394;-6.294;2023-01-16T05:24:54;98559.13;;;16.45;11.76
64698;BME280;51124;53.394;-6.294;2023-01-16T05:27:20;98558.09;;;16.62;11.84
64698;BME280;51124;53.394;-6.294;2023-01-16T05:29:46;98562.21;;;16.36;11.89
64698;BME280;51124;53.394;-6.294;2023-01-16T05:32:11;98563.55;;;16.52;11.85
64698;BME280;51124;53.394;-6.294;2023-01-16T05:34:37;98559.88;;;16.54;11.85
64698;BME280;51124;53.394;-6.294;2023-01-16T05:37:03;98557.20;;;15.89;11.91
64698;BME280;51124;53.394;-6.294;2023-01-16T05:39:29;98555.71;;;16.52;11.92
64698;BME280;51124;53.394;-6.294;2023-01-16T05:41:54;98558.80;;;16.26;11.90
64698;BME280;51124;53.394;-6.294;2023-01-16T05:44:20;98559.58;;;16.26;11.87
64698;BME280;51124;53.394;-6.294;2023-01-16T05:46:46;98561.85;;;15.93;11.93
64698;BME280;51124;53.394;-6.294;2023-01-16T05:49:11;98568.99;;;16.31;11.86
64698;BME280;51124;53.394;-6.294;2023-01-16T05:51:37;98570.05;;;16.27;11.91
64698;BME280;51124;53.394;-6.294;2023-01-16T05:54:03;98571.59;;;15.91;11.93
64698;BME280;51124;53.394;-6.294;2023-01-16T05:56:29;98576.80;;;16.26;11.90
64698;BME280;51124;53.394;-6.294;2023-01-16T05:58:54;98581.05;;;15.82;11.87
64698;BME280;51124;53.394;-6.294;2023-01-16T06:01:20;98580.71;;;16.45;11.87
64698;BME280;51124;53.394;-6.294;2023-01-16T06:03:46;98584.39;;;16.01;11.82
64698;BME280;51124;53.394;-6.294;2023-01-16T06:06:12;98588.00;;;16.87;11.75
64698;BME280;51124;53.394;-6.294;2023-01-16T06:08:37;98589.22;;;16.15;11.83
64698;BME280;51124;53.394;-6.294;2023-01-16T06:11:03;98590.47;;;16.38;11.89
64698;BME280;51124;53.394;-6.294;2023-01-16T06:13:29;98589.25;;;16.19;11.92
64698;BME280;51124;53.394;-6.294;2023-01-16T06:15:55;98584.13;;;15.71;11.91
64698;BME280;51124;53.394;-6.294;2023-01-16T06:18:20;98580.96;;;16.47;11.92
64698;BME280;51124;53.394;-6.294;2023-01-16T06:20:46;98581.09;;;16.51;11.76
64698;BME280;51124;53.394;-6.294;2023-01-16T06:23:12;98583.21;;;16.12;11.85
64698;BME280;51124;53.394;-6.294;2023-01-16T06:25:38;98588.66;;;16.11;11.81
64698;BME280;51124;53.394;-6.294;2023-01-16T06:28:04;98585.42;;;16.16;11.78
64698;BME280;51124;53.394;-6.294;2023-01-16T06:30:29;98589.86;;;16.50;11.82
64698;BME280;51124;53.394;-6.294;2023-01-16T06:32:55;98589.64;;;16.06;11.85
64698;BME280;51124;53.394;-6.294;2023-01-16T06:35:21;98593.96;;;16.07;11.87
64698;BME280;51124;53.394;-6.294;2023-01-16T06:37:47;98594.07;;;16.20;11.85
64698;BME280;51124;53.394;-6.294;2023-01-16T06:40:13;98593.32;;;16.56;11.86
64698;BME280;51124;53.394;-6.294;2023-01-16T06:42:38;98596.89;;;15.88;11.89
64698;BME280;51124;53.394;-6.294;2023-01-16T06:45:05;98598.49;;;16.21;11.87
64698;BME280;51124;53.394;-6.294;2023-01-16T06:47:31;98595.36;;;16.11;11.79
64698;BME280;51124;53.394;-6.294;2023-01-16T06:49:56;98596.75;;;15.89;11.86
64698;BME280;51124;53.394;-6.294;2023-01-16T06:52:22;98595.32;;;16.51;11.85
64698;BME280;51124;53.394;-6.294;2023-01-16T06:54:48;98585.32;;;16.07;11.84
64698;BME280;51124;53.394;-6.294;2023-01-16T06:57:13;98588.03;;;16.06;11.85
64698;BME280;51124;53.394;-6.294;2023-01-16T06:59:37;98584.25;;;16.25;11.77
64698;BME280;51124;53.394;-6.294;2023-01-16T07:02:11;98586.45;;;16.20;11.77
64698;BME280;51124;53.394;-6.294;2023-01-16T07:04:45;98589.26;;;16.20;11.70
64698;BME280;51124;53.394;-6.294;2023-01-16T07:07:19;98589.21;;;16.13;11.75
64698;BME280;51124;53.394;-6.294;2023-01-16T07:09:53;98587.55;;;16.20;11.76
64698;BME280;51124;53.394;-6.294;2023-01-16T07:12:27;98590.37;;;16.19;11.80
64698;BME280;51124;53.394;-6.294;2023-01-16T07:15:01;98590.82;;;15.99;11.78
64698;BME280;51124;53.394;-6.294;2023-01-16T07:17:35;98596.71;;;16.08;11.78
64698;BME280;51124;53.394;-6.294;2023-01-16T07:20:10;98598.87;;;16.02;11.82
64698;BME280;51124;53.394;-6.294;2023-01-16T07:22:44;98603.30;;;16.05;11.83
64698;BME280;51124;53.394;-6.294;2023-01-16T07:25:20;98609.61;;;15.86;11.79
64698;BME280;51124;53.394;-6.294;2023-01-16T07:27:46;98608.42;;;15.92;11.77
64698;BME280;51124;53.394;-6.294;2023-01-16T07:30:12;98605.71;;;15.89;11.83
64698;BME280;51124;53.394;-6.294;2023-01-16T07:32:46;98606.96;;;16.82;11.71
64698;BME280;51124;53.394;-6.294;2023-01-16T07:35:20;98616.13;;;16.66;11.62
64698;BME280;51124;53.394;-6.294;2023-01-16T07:37:54;98619.39;;;15.22;11.82
64698;BME280;51124;53.394;-6.294;2023-01-16T07:40:28;98619.07;;;15.85;11.83
64698;BME280;51124;53.394;-6.294;2023-01-16T07:43:03;98616.18;;;15.69;11.79
64698;BME280;51124;53.394;-6.294;2023-01-16T07:45:37;98611.72;;;16.40;11.52
64698;BME280;51124;53.394;-6.294;2023-01-16T07:48:11;98609.08;;;16.99;11.37
64698;BME280;51124;53.394;-6.294;2023-01-16T07:50:49;98610.97;;;17.25;11.20
64698;BME280;51124;53.394;-6.294;2023-01-16T07:53:13;98609.63;;;17.41;11.00
64698;BME280;51124;53.394;-6.294;2023-01-16T07:55:47;98605.26;;;17.19;11.07
64698;BME280;51124;53.394;-6.294;2023-01-16T07:58:21;98606.15;;;17.72;10.99
64698;BME280;51124;53.394;-6.294;2023-01-16T08:00:56;98608.75;;;17.83;11.01
64698;BME280;51124;53.394;-6.294;2023-01-16T08:03:31;98617.06;;;18.44;10.67
64698;BME280;51124;53.394;-6.294;2023-01-16T08:06:05;98622.58;;;18.41;10.61
64698;BME280;51124;53.394;-6.294;2023-01-16T08:08:39;98626.81;;;18.54;11.15
64698;BME280;51124;53.394;-6.294;2023-01-16T08:11:13;98628.22;;;17.84;11.35
64698;BME280;51124;53.394;-6.294;2023-01-16T08:13:47;98624.81;;;17.90;11.40
64698;BME280;51124;53.394;-6.294;2023-01-16T08:16:21;98624.52;;;18.14;11.33
64698;BME280;51124;53.394;-6.294;2023-01-16T08:18:55;98631.35;;;17.47;11.36
64698;BME280;51124;53.394;-6.294;2023-01-16T08:21:30;98635.90;;;18.48;11.15
64698;BME280;51124;53.394;-6.294;2023-01-16T08:24:04;98639.80;;;18.61;11.21
64698;BME280;51124;53.394;-6.294;2023-01-16T08:26:39;98639.38;;;18.48;11.22
64698;BME280;51124;53.394;-6.294;2023-01-16T08:29:12;98638.38;;;18.99;11.08
64698;BME280;51124;53.394;-6.294;2023-01-16T08:31:55;98635.98;;;19.01;11.08
64698;BME280;51124;53.394;-6.294;2023-01-16T08:34:19;98636.97;;;19.28;11.12
64698;BME280;51124;53.394;-6.294;2023-01-16T08:36:53;98635.35;;;19.02;11.08
64698;BME280;51124;53.394;-6.294;2023-01-16T08:39:27;98635.83;;;19.52;11.01
64698;BME280;51124;53.394;-6.294;2023-01-16T08:42:01;98636.17;;;20.08;10.84
64698;BME280;51124;53.394;-6.294;2023-01-16T08:44:35;98639.79;;;19.32;10.88
64698;BME280;51124;53.394;-6.294;2023-01-16T08:47:11;98641.37;;;19.17;11.06
64698;BME280;51124;53.394;-6.294;2023-01-16T08:49:36;98646.96;;;20.32;10.93
64698;BME280;51124;53.394;-6.294;2023-01-16T08:52:10;98649.77;;;19.68;11.06
64698;BME280;51124;53.394;-6.294;2023-01-16T08:54:44;98648.16;;;20.32;10.86
64698;BME280;51124;53.394;-6.294;2023-01-16T08:57:18;98656.18;;;19.54;10.87
64698;BME280;51124;53.394;-6.294;2023-01-16T08:59:52;98658.19;;;18.81;10.97
64698;BME280;51124;53.394;-6.294;2023-01-16T09:02:26;98662.98;;;18.95;10.56
64698;BME280;51124;53.394;-6.294;2023-01-16T09:04:51;98662.78;;;18.78;10.47
64698;BME280;51124;53.394;-6.294;2023-01-16T09:07:25;98668.60;;;19.40;10.26
64698;BME280;51124;53.394;-6.294;2023-01-16T09:09:59;98671.97;;;20.33;10.16
64698;BME280;51124;53.394;-6.294;2023-01-16T09:12:33;98678.80;;;20.27;10.56
64698;BME280;51124;53.394;-6.294;2023-01-16T09:15:07;98676.33;;;20.27;10.49
64698;BME280;51124;53.394;-6.294;2023-01-16T09:17:41;98681.25;;;20.14;10.56
64698;BME280;51124;53.394;-6.294;2023-01-16T09:20:16;98676.25;;;21.00;10.50
64698;BME280;51124;53.394;-6.294;2023-01-16T09:22:56;98671.94;;;20.73;10.55
64698;BME280;51124;53.394;-6.294;2023-01-16T09:25:20;98672.84;;;20.23;10.65
64698;BME280;51124;53.394;-6.294;2023-01-16T09:27:54;98674.13;;;19.91;10.65
64698;BME280;51124;53.394;-6.294;2023-01-16T09:30:28;98675.41;;;20.50;10.73
64698;BME280;51124;53.394;-6.294;2023-01-16T09:33:02;98677.16;;;19.99;10.83
64698;BME280;51124;53.394;-6.294;2023-01-16T09:35:36;98678.87;;;19.65;11.14
64698;BME280;51124;53.394;-6.294;2023-01-16T09:38:09;98678.56;;;20.46;11.11
64698;BME280;51124;53.394;-6.294;2023-01-16T09:40:45;98681.66;;;19.45;11.22
64698;BME280;51124;53.394;-6.294;2023-01-16T09:43:16;98681.39;;;19.69;11.31
64698;BME280;51124;53.394;-6.294;2023-01-16T09:45:45;98681.26;;;19.06;11.32
64698;BME280;51124;53.394;-6.294;2023-01-16T09:48:12;98682.02;;;19.83;11.41
64698;BME280;51124;53.394;-6.294;2023-01-16T09:50:39;98680.17;;;19.08;11.49
64698;BME280;51124;53.394;-6.294;2023-01-16T09:53:13;98682.72;;;19.40;11.53
64698;BME280;51124;53.394;-6.294;2023-01-16T09:55:42;98678.39;;;18.94;11.49
64698;BME280;51124;53.394;-6.294;2023-01-16T09:58:12;98685.76;;;19.52;11.57
64698;BME280;51124;53.394;-6.294;2023-01-16T10:00:38;98687.10;;;19.59;11.43
64698;BME280;51124;53.394;-6.294;2023-01-16T10:03:12;98688.04;;;19.27;11.44
64698;BME280;51124;53.394;-6.294;2023-01-16T10:05:50;98686.76;;;19.91;11.46
64698;BME280;51124;53.394;-6.294;2023-01-16T10:08:25;98685.48;;;19.78;11.57
64698;BME280;51124;53.394;-6.294;2023-01-16T10:10:44;98685.01;;;19.36;11.45
64698;BME280;51124;53.394;-6.294;2023-01-16T10:13:24;98689.78;;;19.75;11.46
64698;BME280;51124;53.394;-6.294;2023-01-16T10:15:44;98691.71;;;19.31;11.51
64698;BME280;51124;53.394;-6.294;2023-01-16T10:18:21;98687.87;;;19.28;11.43
64698;BME280;51124;53.394;-6.294;2023-01-16T10:20:47;98685.73;;;19.09;11.66
64698;BME280;51124;53.394;-6.294;2023-01-16T10:23:20;98684.42;;;19.52;11.37
64698;BME280;51124;53.394;-6.294;2023-01-16T10:25:44;98682.12;;;19.30;11.45
64698;BME280;51124;53.394;-6.294;2023-01-16T10:28:21;98688.68;;;19.68;11.71
64698;BME280;51124;53.394;-6.294;2023-01-16T10:30:40;98687.24;;;19.90;11.74
64698;BME280;51124;53.394;-6.294;2023-01-16T10:33:13;98689.02;;;19.47;11.67
64698;BME280;51124;53.394;-6.294;2023-01-16T10:35:40;98690.05;;;19.44;11.62
64698;BME280;51124;53.394;-6.294;2023-01-16T10:38:18;98689.83;;;19.52;11.69
64698;BME280;51124;53.394;-6.294;2023-01-16T10:40:34;98688.81;;;19.77;11.73
64698;BME280;51124;53.394;-6.294;2023-01-16T10:43:10;98684.39;;;19.44;11.65
64698;BME280;51124;53.394;-6.294;2023-01-16T10:45:37;98683.90;;;19.87;11.73
64698;BME280;51124;53.394;-6.294;2023-01-16T10:48:12;98681.25;;;19.53;11.85
64698;BME280;51124;53.394;-6.294;2023-01-16T10:50:37;98680.26;;;18.92;11.95
64698;BME280;51124;53.394;-6.294;2023-01-16T10:53:13;98678.71;;;18.52;11.97
64698;BME280;51124;53.394;-6.294;2023-01-16T10:55:48;98680.35;;;20.14;11.79
64698;BME280;51124;53.394;-6.294;2023-01-16T10:58:26;98683.40;;;19.20;11.76
64698;BME280;51124;53.394;-6.294;2023-01-16T11:00:50;98681.97;;;19.73;11.73
64698;BME280;51124;53.394;-6.294;2023-01-16T11:03:19;98678.98;;;19.33;11.64
64698;BME280;51124;53.394;-6.294;2023-01-16T11:05:47;98681.49;;;20.09;11.69
64698;BME280;51124;53.394;-6.294;2023-01-16T11:08:21;98680.01;;;19.76;11.59
64698;BME280;51124;53.394;-6.294;2023-01-16T11:10:55;98686.85;;;19.71;11.62
64698;BME280;51124;53.394;-6.294;2023-01-16T11:13:30;98687.36;;;19.01;11.78
64698;BME280;51124;53.394;-6.294;2023-01-16T11:16:05;98685.10;;;19.18;11.81
64698;BME280;51124;53.394;-6.294;2023-01-16T11:18:31;98677.99;;;19.42;11.80
64698;BME280;51124;53.394;-6.294;2023-01-16T11:20:57;98677.21;;;20.04;11.51
64698;BME280;51124;53.394;-6.294;2023-01-16T11:23:23;98672.27;;;19.46;11.58
64698;BME280;51124;53.394;-6.294;2023-01-16T11:25:50;98669.34;;;19.57;11.41
64698;BME280;51124;53.394;-6.294;2023-01-16T11:28:19;98665.89;;;19.76;10.36
64698;BME280;51124;53.394;-6.294;2023-01-16T11:30:45;98664.42;;;19.03;10.64
64698;BME280;51124;53.394;-6.294;2023-01-16T11:33:14;98663.54;;;19.91;10.51
64698;BME280;51124;53.394;-6.294;2023-01-16T11:35:39;98661.51;;;19.94;10.55
64698;BME280;51124;53.394;-6.294;2023-01-16T11:38:14;98656.45;;;19.85;10.58
64698;BME280;51124;53.394;-6.294;2023-01-16T11:40:49;98652.95;;;19.46;10.57
64698;BME280;51124;53.394;-6.294;2023-01-16T11:43:15;98644.38;;;20.02;10.52
64698;BME280;51124;53.394;-6.294;2023-01-16T11:45:43;98642.18;;;20.39;10.55
64698;BME280;51124;53.394;-6.294;2023-01-16T11:48:08;98637.71;;;20.46;10.55
64698;BME280;51124;53.394;-6.294;2023-01-16T11:50:47;98633.72;;;19.66;10.80
64698;BME280;51124;53.394;-6.294;2023-01-16T11:53:12;98628.76;;;19.06;10.80
64698;BME280;51124;53.394;-6.294;2023-01-16T11:55:56;98629.00;;;19.47;10.61
64698;BME280;51124;53.394;-6.294;2023-01-16T11:58:17;98623.95;;;19.27;10.75
64698;BME280;51124;53.394;-6.294;2023-01-16T12:00:50;98622.36;;;19.81;10.80
64698;BME280;51124;53.394;-6.294;2023-01-16T12:03:35;98621.57;;;19.66;10.82
64698;BME280;51124;53.394;-6.294;2023-01-16T12:05:50;98616.62;;;19.24;10.88
64698;BME280;51124;53.394;-6.294;2023-01-16T12:08:20;98613.47;;;19.22;10.83
64698;BME280;51124;53.394;-6.294;2023-01-16T12:10:45;98612.25;;;19.66;11.58
64698;BME280;51124;53.394;-6.294;2023-01-16T12:13:06;98610.15;;;19.52;11.52
64698;BME280;51124;53.394;-6.294;2023-01-16T12:15:33;98609.69;;;19.69;11.27
64698;BME280;51124;53.394;-6.294;2023-01-16T12:18:15;98607.12;;;19.85;11.16
64698;BME280;51124;53.394;-6.294;2023-01-16T12:20:48;98605.89;;;19.01;11.40
64698;BME280;51124;53.394;-6.294;2023-01-16T12:23:21;98605.02;;;19.55;11.19
64698;BME280;51124;53.394;-6.294;2023-01-16T12:25:45;98602.51;;;19.64;11.11
64698;BME280;51124;53.394;-6.294;2023-01-16T12:28:15;98600.40;;;19.18;11.13
64698;BME280;51124;53.394;-6.294;2023-01-16T12:30:42;98595.86;;;19.42;11.03
64698;BME280;51124;53.394;-6.294;2023-01-16T12:33:06;98594.98;;;19.63;10.91
64698;BME280;51124;53.394;-6.294;2023-01-16T12:35:40;98592.09;;;18.36;10.23
64698;BME280;51124;53.394;-6.294;2023-01-16T12:38:12;98594.18;;;18.29;9.93
64698;BME280;51124;53.394;-6.294;2023-01-16T12:40:51;98587.11;;;18.63;9.88
64698;BME280;51124;53.394;-6.294;2023-01-16T12:43:17;98583.30;;;18.59;9.69
64698;BME280;51124;53.394;-6.294;2023-01-16T12:45:40;98577.91;;;18.44;9.75
64698;BME280;51124;53.394;-6.294;2023-01-16T12:48:49;98575.55;;;17.81;9.77
64698;BME280;51124;53.394;-6.294;2023-01-16T12:50:47;98572.07;;;19.24;9.36
64698;BME280;51124;53.394;-6.294;2023-01-16T12:53:15;98571.66;;;18.59;9.40
64698;BME280;51124;53.394;-6.294;2023-01-16T12:55:37;98570.23;;;18.99;9.54
64698;BME280;51124;53.394;-6.294;2023-01-16T12:58:12;98568.73;;;18.21;9.57
64698;BME280;51124;53.394;-6.294;2023-01-16T13:00:40;98562.22;;;18.65;9.66
64698;BME280;51124;53.394;-6.294;2023-01-16T13:03:15;98559.12;;;18.99;9.54
64698;BME280;51124;53.394;-6.294;2023-01-16T13:05:40;98556.33;;;18.32;9.63